sensor_id;sensor_type;location;lat;lon;timestamp;pressure;altitude;pressure_sealevel;temperature;humidity
63204;BME280;49297;43.210;27.914;2023-03-15T00:01:06;100557.03;;;6.91;68.46
63204;BME280;49297;43.210;27.914;2023-03-15T00:03:33;100550.00;;;6.92;68.38
63204;BME280;49297;43.210;27.914;2023-03-15T00:06:02;100547.50;;;6.90;68.44
63204;BME280;49297;43.210;27.914;2023-03-15T00:08:29;100545.91;;;6.88;68.78
63204;BME280;49297;43.210;27.914;2023-03-15T00:10:58;100543.16;;;6.89;68.78
63204;BME280;49297;43.210;27.914;2023-03-15T00:13:24;100542.44;;;6.87;68.92
63204;BME280;49297;43.210;27.914;2023-03-15T00:15:51;100542.34;;;6.89;68.74
63204;BME280;49297;43.210;27.914;2023-03-15T00:18:19;100530.13;;;6.88;68.88
63204;BME280;49297;43.210;27.914;2023-03-15T00:20:45;100519.47;;;6.89;68.63
63204;BME280;49297;43.210;27.914;2023-03-15T00:23:11;100520.56;;;6.86;69.10
63204;BME280;49297;43.210;27.914;2023-03-15T00:25:37;100517.94;;;6.86;69.04
63204;BME280;49297;43.210;27.914;2023-03-15T00:28:04;100514.44;;;6.86;69.23
63204;BME280;49297;43.210;27.914;2023-03-15T00:30:30;100515.91;;;6.90;68.92
63204;BME280;49297;43.210;27.914;2023-03-15T00:32:56;100515.03;;;6.90;69.02
63204;BME280;49297;43.210;27.914;2023-03-15T00:35:22;100506.31;;;6.89;68.94
63204;BME280;49297;43.210;27.914;2023-03-15T00:37:52;100504.66;;;6.88;68.66
63204;BME280;49297;43.210;27.914;2023-03-15T00:40:19;100498.78;;;6.84;69.19
63204;BME280;49297;43.210;27.914;2023-03-15T00:42:45;100496.75;;;6.88;68.99
63204;BME280;49297;43.210;27.914;2023-03-15T00:45:18;100493.53;;;6.84;69.07
63204;BME280;49297;43.210;27.914;2023-03-15T00:47:44;100496.16;;;6.84;69.33
63204;BME280;49297;43.210;27.914;2023-03-15T00:58:15;100463.00;;;6.93;68.97
63204;BME280;49297;43.210;27.914;2023-03-15T01:00:41;100461.22;;;6.94;69.09
63204;BME280;49297;43.210;27.914;2023-03-15T01:03:07;100457.75;;;6.93;68.87
63204;BME280;49297;43.210;27.914;2023-03-15T01:05:32;100453.22;;;6.95;68.64
63204;BME280;49297;43.210;27.914;2023-03-15T01:07:58;100448.66;;;6.97;68.60
63204;BME280;49297;43.210;27.914;2023-03-15T01:10:24;100446.84;;;6.98;69.00
63204;BME280;49297;43.210;27.914;2023-03-15T01:12:49;100434.53;;;6.98;68.42
63204;BME280;49297;43.210;27.914;2023-03-15T01:15:15;100437.03;;;7.00;68.68
63204;BME280;49297;43.210;27.914;2023-03-15T01:17:41;100434.53;;;6.98;68.47
63204;BME280;49297;43.210;27.914;2023-03-15T01:20:08;100437.28;;;6.97;68.52
63204;BME280;49297;43.210;27.914;2023-03-15T01:22:34;100440.88;;;6.96;68.41
63204;BME280;49297;43.210;27.914;2023-03-15T01:25:00;100433.81;;;6.96;68.53
63204;BME280;49297;43.210;27.914;2023-03-15T01:27:26;100430.94;;;6.99;68.29
63204;BME280;49297;43.210;27.914;2023-03-15T01:29:52;100434.28;;;7.01;68.79
63204;BME280;49297;43.210;27.914;2023-03-15T01:32:17;100424.47;;;7.03;68.62
63204;BME280;49297;43.210;27.914;2023-03-15T01:34:43;100419.09;;;7.05;68.62
63204;BME280;49297;43.210;27.914;2023-03-15T01:37:09;100424.34;;;7.05;68.51
63204;BME280;49297;43.210;27.914;2023-03-15T01:39:40;100418.38;;;7.03;68.84
63204;BME280;49297;43.210;27.914;2023-03-15T01:42:06;100422.81;;;7.02;68.77
63204;BME280;49297;43.210;27.914;2023-03-15T01:44:55;100426.28;;;7.03;68.61
63204;BME280;49297;43.210;27.914;2023-03-15T01:47:22;100419.31;;;7.02;68.68
63204;BME280;49297;43.210;27.914;2023-03-15T01:50:09;100420.19;;;7.02;68.73
63204;BME280;49297;43.210;27.914;2023-03-15T01:52:38;100415.75;;;7.03;69.33
63204;BME280;49297;43.210;27.914;2023-03-15T01:55:13;100411.31;;;7.03;68.45
63204;BME280;49297;43.210;27.914;2023-03-15T01:57:51;100412.03;;;7.05;68.60
63204;BME280;49297;43.210;27.914;2023-03-15T02:00:21;100415.03;;;7.01;68.83
63204;BME280;49297;43.210;27.914;2023-03-15T02:02:52;100405.47;;;7.00;69.18
63204;BME280;49297;43.210;27.914;2023-03-15T02:05:24;100404.75;;;6.98;68.82
63204;BME280;49297;43.210;27.914;2023-03-15T02:07:50;100405.84;;;6.95;69.06
63204;BME280;49297;43.210;27.914;2023-03-15T02:10:45;100399.13;;;6.91;69.34
63204;BME280;49297;43.210;27.914;2023-03-15T02:13:17;100396.59;;;6.90;69.38
63204;BME280;49297;43.210;27.914;2023-03-15T02:15:44;100405.47;;;6.89;69.22
63204;BME280;49297;43.210;27.914;2023-03-15T02:18:12;100395.06;;;6.87;69.47
63204;BME280;49297;43.210;27.914;2023-03-15T02:23:25;100411.09;;;6.84;69.52
63204;BME280;49297;43.210;27.914;2023-03-15T02:28:33;100410.72;;;6.77;69.47
63204;BME280;49297;43.210;27.914;2023-03-15T02:30:59;100416.84;;;6.78;69.64
63204;BME280;49297;43.210;27.914;2023-03-15T02:33:33;100411.47;;;6.79;69.79
63204;BME280;49297;43.210;27.914;2023-03-15T02:38:39;100407.50;;;6.74;70.03
63204;BME280;49297;43.210;27.914;2023-03-15T02:41:05;100410.13;;;6.74;69.84
63204;BME280;49297;43.210;27.914;2023-03-15T02:43:31;100405.03;;;6.72;70.45
63204;BME280;49297;43.210;27.914;2023-03-15T02:45:58;100410.13;;;6.74;70.53
63204;BME280;49297;43.210;27.914;2023-03-15T02:48:25;100407.28;;;6.77;70.80
63204;BME280;49297;43.210;27.914;2023-03-15T02:50:51;100404.53;;;6.78;70.65
63204;BME280;49297;43.210;27.914;2023-03-15T02:53:17;100409.78;;;6.78;70.76
63204;BME280;49297;43.210;27.914;2023-03-15T02:55:42;100407.03;;;6.80;70.48
63204;BME280;49297;43.210;27.914;2023-03-15T02:58:08;100394.72;;;6.80;70.94
63204;BME280;49297;43.210;27.914;2023-03-15T03:00:34;100403.31;;;6.82;70.63
63204;BME280;49297;43.210;27.914;2023-03-15T03:03:00;100404.19;;;6.83;70.56
63204;BME280;49297;43.210;27.914;2023-03-15T03:05:26;100402.25;;;6.85;70.70
63204;BME280;49297;43.210;27.914;2023-03-15T03:07:51;100406.53;;;6.86;71.09
63204;BME280;49297;43.210;27.914;2023-03-15T03:10:19;100395.06;;;6.87;70.89
63204;BME280;49297;43.210;27.914;2023-03-15T03:12:45;100403.47;;;6.81;71.04
63204;BME280;49297;43.210;27.914;2023-03-15T03:15:12;100401.44;;;6.84;71.31
63204;BME280;49297;43.210;27.914;2023-03-15T03:17:37;100405.84;;;6.84;71.38
63204;BME280;49297;43.210;27.914;2023-03-15T03:20:06;100403.78;;;6.88;71.39
63204;BME280;49297;43.210;27.914;2023-03-15T03:22:33;100406.44;;;6.88;71.31
63204;BME280;49297;43.210;27.914;2023-03-15T03:24:59;100402.97;;;6.87;71.07
63204;BME280;49297;43.210;27.914;2023-03-15T03:27:24;100407.72;;;6.93;71.16
63204;BME280;49297;43.210;27.914;2023-03-15T03:29:50;100405.69;;;6.97;70.99
63204;BME280;49297;43.210;27.914;2023-03-15T03:32:16;100407.25;;;6.99;70.94
63204;BME280;49297;43.210;27.914;2023-03-15T03:34:42;100411.47;;;6.91;70.86
63204;BME280;49297;43.210;27.914;2023-03-15T03:37:18;100407.53;;;6.85;70.27
63204;BME280;49297;43.210;27.914;2023-03-15T03:39:44;100402.72;;;6.90;70.46
63204;BME280;49297;43.210;27.914;2023-03-15T03:42:10;100403.91;;;6.97;69.91
63204;BME280;49297;43.210;27.914;2023-03-15T03:44:35;100397.78;;;6.97;70.56
63204;BME280;49297;43.210;27.914;2023-03-15T03:47:02;100402.22;;;6.96;70.20
63204;BME280;49297;43.210;27.914;2023-03-15T03:49:27;100398.06;;;6.94;70.14
63204;BME280;49297;43.210;27.914;2023-03-15T03:51:53;100404.16;;;6.94;70.03
63204;BME280;49297;43.210;27.914;2023-03-15T03:54:19;100400.44;;;6.97;70.09
63204;BME280;49297;43.210;27.914;2023-03-15T03:56:46;100402.00;;;6.99;70.11
63204;BME280;49297;43.210;27.914;2023-03-15T03:59:12;100401.63;;;7.04;70.16
63204;BME280;49297;43.210;27.914;2023-03-15T04:01:38;100398.16;;;7.03;69.89
63204;BME280;49297;43.210;27.914;2023-03-15T04:04:04;100391.22;;;7.02;70.02
63204;BME280;49297;43.210;27.914;2023-03-15T04:06:31;100397.09;;;7.06;70.50
63204;BME280;49297;43.210;27.914;2023-03-15T04:08:56;100400.56;;;7.07;70.50
63204;BME280;49297;43.210;27.914;2023-03-15T04:11:22;100394.06;;;7.11;70.13
63204;BME280;49297;43.210;27.914;2023-03-15T04:13:52;100387.84;;;7.12;70.19
63204;BME280;49297;43.210;27.914;2023-03-15T04:16:18;100388.81;;;7.11;69.93
63204;BME280;49297;43.210;27.914;2023-03-15T04:18:44;100391.66;;;7.08;69.72
63204;BME280;49297;43.210;27.914;2023-03-15T04:21:10;100379.09;;;7.11;69.99
63204;BME280;49297;43.210;27.914;2023-03-15T04:23:36;100375.53;;;7.12;69.35
63204;BME280;49297;43.210;27.914;2023-03-15T04:26:03;100379.97;;;7.12;69.48
63204;BME280;49297;43.210;27.914;2023-03-15T04:28:30;100378.97;;;7.13;69.54
63204;BME280;49297;43.210;27.914;2023-03-15T04:30:57;100381.38;;;7.16;69.82
63204;BME280;49297;43.210;27.914;2023-03-15T04:33:27;100381.38;;;7.16;69.15
63204;BME280;49297;43.210;27.914;2023-03-15T04:35:53;100387.63;;;7.15;69.19
63204;BME280;49297;43.210;27.914;2023-03-15T04:38:19;100386.63;;;7.16;69.97
63204;BME280;49297;43.210;27.914;2023-03-15T04:40:52;100388.91;;;7.20;69.44
63204;BME280;49297;43.210;27.914;2023-03-15T04:43:19;100383.53;;;7.22;69.00
63204;BME280;49297;43.210;27.914;2023-03-15T04:45:46;100395.72;;;7.23;68.90
63204;BME280;49297;43.210;27.914;2023-03-15T04:48:12;100391.44;;;7.22;69.07
63204;BME280;49297;43.210;27.914;2023-03-15T04:50:37;100384.47;;;7.21;69.59
63204;BME280;49297;43.210;27.914;2023-03-15T04:53:03;100388.41;;;7.27;69.00
63204;BME280;49297;43.210;27.914;2023-03-15T04:55:29;100401.22;;;7.31;69.41
63204;BME280;49297;43.210;27.914;2023-03-15T04:57:55;100402.16;;;7.30;68.77
63204;BME280;49297;43.210;27.914;2023-03-15T05:00:22;100394.16;;;7.32;68.76
63204;BME280;49297;43.210;27.914;2023-03-15T05:02:47;100392.59;;;7.29;69.26
63204;BME280;49297;43.210;27.914;2023-03-15T05:05:20;100384.56;;;7.31;68.96
63204;BME280;49297;43.210;27.914;2023-03-15T05:07:48;100392.34;;;7.32;69.09
63204;BME280;49297;43.210;27.914;2023-03-15T05:10:13;100385.13;;;7.34;68.81
63204;BME280;49297;43.210;27.914;2023-03-15T05:12:40;100380.47;;;7.38;68.88
63204;BME280;49297;43.210;27.914;2023-03-15T05:15:06;100379.63;;;7.37;68.68
63204;BME280;49297;43.210;27.914;2023-03-15T05:17:32;100361.06;;;7.39;68.69
63204;BME280;49297;43.210;27.914;2023-03-15T05:19:58;100357.97;;;7.45;68.61
63204;BME280;49297;43.210;27.914;2023-03-15T05:22:26;100364.25;;;7.54;68.17
63204;BME280;49297;43.210;27.914;2023-03-15T05:24:52;100352.63;;;7.56;68.37
63204;BME280;49297;43.210;27.914;2023-03-15T05:27:18;100349.59;;;7.61;68.45
63204;BME280;49297;43.210;27.914;2023-03-15T05:29:45;100348.28;;;7.67;67.95
63204;BME280;49297;43.210;27.914;2023-03-15T05:32:11;100352.31;;;7.71;68.32
63204;BME280;49297;43.210;27.914;2023-03-15T05:34:37;100340.53;;;7.75;67.96
63204;BME280;49297;43.210;27.914;2023-03-15T05:37:02;100331.28;;;7.80;67.77
63204;BME280;49297;43.210;27.914;2023-03-15T05:39:28;100333.41;;;7.87;68.45
63204;BME280;49297;43.210;27.914;2023-03-15T05:42:00;100331.34;;;7.90;67.50
63204;BME280;49297;43.210;27.914;2023-03-15T05:44:26;100329.31;;;7.94;67.57
63204;BME280;49297;43.210;27.914;2023-03-15T05:46:52;100334.44;;;7.95;67.43
63204;BME280;49297;43.210;27.914;2023-03-15T05:49:17;100331.16;;;8.03;67.52
63204;BME280;49297;43.210;27.914;2023-03-15T05:51:43;100340.47;;;8.07;67.20
63204;BME280;49297;43.210;27.914;2023-03-15T05:54:09;100335.25;;;8.17;67.19
63204;BME280;49297;43.210;27.914;2023-03-15T05:56:35;100338.78;;;8.27;67.16
63204;BME280;49297;43.210;27.914;2023-03-15T05:59:01;100325.50;;;8.38;66.62
63204;BME280;49297;43.210;27.914;2023-03-15T06:01:27;100324.78;;;8.36;66.95
63204;BME280;49297;43.210;27.914;2023-03-15T06:03:53;100318.19;;;8.42;66.40
63204;BME280;49297;43.210;27.914;2023-03-15T06:06:19;100309.16;;;8.45;66.35
63204;BME280;49297;43.210;27.914;2023-03-15T06:08:45;100291.81;;;8.52;66.09
63204;BME280;49297;43.210;27.914;2023-03-15T06:11:11;100298.38;;;8.57;65.33
63204;BME280;49297;43.210;27.914;2023-03-15T06:13:36;100293.50;;;8.53;65.79
63204;BME280;49297;43.210;27.914;2023-03-15T06:16:02;100304.06;;;8.53;65.61
63204;BME280;49297;43.210;27.914;2023-03-15T06:18:28;100301.66;;;8.50;65.26
63204;BME280;49297;43.210;27.914;2023-03-15T06:20:54;100296.41;;;8.50;65.09
63204;BME280;49297;43.210;27.914;2023-03-15T06:23:19;100291.41;;;8.56;64.89
63204;BME280;49297;43.210;27.914;2023-03-15T06:25:45;100294.94;;;8.67;65.08
63204;BME280;49297;43.210;27.914;2023-03-15T06:28:11;100290.50;;;8.77;64.79
63204;BME280;49297;43.210;27.914;2023-03-15T06:30:37;100269.53;;;8.85;64.57
63204;BME280;49297;43.210;27.914;2023-03-15T06:33:02;100271.47;;;8.93;64.44
63204;BME280;49297;43.210;27.914;2023-03-15T06:35:28;100272.03;;;8.96;64.82
63204;BME280;49297;43.210;27.914;2023-03-15T06:37:54;100271.50;;;9.03;64.79
63204;BME280;49297;43.210;27.914;2023-03-15T06:40:20;100273.31;;;9.02;64.56
63204;BME280;49297;43.210;27.914;2023-03-15T06:42:45;100266.75;;;9.06;64.45
63204;BME280;49297;43.210;27.914;2023-03-15T06:45:11;100269.13;;;9.09;64.87
63204;BME280;49297;43.210;27.914;2023-03-15T06:47:37;100261.91;;;9.11;64.81
63204;BME280;49297;43.210;27.914;2023-03-15T06:50:05;100258.28;;;9.12;64.46
63204;BME280;49297;43.210;27.914;2023-03-15T06:52:30;100267.19;;;9.11;64.47
63204;BME280;49297;43.210;27.914;2023-03-15T06:54:56;100271.34;;;9.14;64.47
63204;BME280;49297;43.210;27.914;2023-03-15T06:57:22;100271.47;;;9.12;64.58
63204;BME280;49297;43.210;27.914;2023-03-15T06:59:47;100283.59;;;9.15;64.88
63204;BME280;49297;43.210;27.914;2023-03-15T07:02:15;100290.69;;;9.14;64.42
63204;BME280;49297;43.210;27.914;2023-03-15T07:04:42;100283.84;;;9.12;65.08
63204;BME280;49297;43.210;27.914;2023-03-15T07:07:10;100281.09;;;9.13;65.22
63204;BME280;49297;43.210;27.914;2023-03-15T07:09:36;100283.31;;;9.18;65.04
63204;BME280;49297;43.210;27.914;2023-03-15T07:12:02;100288.84;;;9.25;64.92
63204;BME280;49297;43.210;27.914;2023-03-15T07:14:28;100296.38;;;9.29;64.62
63204;BME280;49297;43.210;27.914;2023-03-15T07:16:54;100290.13;;;9.30;64.50
63204;BME280;49297;43.210;27.914;2023-03-15T07:19:19;100288.59;;;9.28;64.19
63204;BME280;49297;43.210;27.914;2023-03-15T07:21:45;100303.03;;;9.33;64.46
63204;BME280;49297;43.210;27.914;2023-03-15T07:24:11;100294.72;;;9.38;64.95
63204;BME280;49297;43.210;27.914;2023-03-15T07:26:37;100289.53;;;9.46;65.37
63204;BME280;49297;43.210;27.914;2023-03-15T07:29:02;100296.63;;;9.46;65.15
63204;BME280;49297;43.210;27.914;2023-03-15T07:31:28;100297.78;;;9.43;65.00
63204;BME280;49297;43.210;27.914;2023-03-15T07:33:54;100294.56;;;9.49;65.14
63204;BME280;49297;43.210;27.914;2023-03-15T07:36:20;100299.44;;;9.54;65.18
63204;BME280;49297;43.210;27.914;2023-03-15T07:38:46;100308.19;;;9.55;65.15
63204;BME280;49297;43.210;27.914;2023-03-15T07:41:12;100312.06;;;9.60;64.98
63204;BME280;49297;43.210;27.914;2023-03-15T07:43:38;100310.81;;;9.64;64.59
63204;BME280;49297;43.210;27.914;2023-03-15T07:46:04;100304.53;;;9.65;64.91
63204;BME280;49297;43.210;27.914;2023-03-15T07:48:31;100300.09;;;9.66;64.52
63204;BME280;49297;43.210;27.914;2023-03-15T07:50:57;100316.13;;;9.64;63.82
63204;BME280;49297;43.210;27.914;2023-03-15T07:53:22;100308.88;;;9.66;63.83
63204;BME280;49297;43.210;27.914;2023-03-15T07:55:48;100298.16;;;9.68;64.15
63204;BME280;49297;43.210;27.914;2023-03-15T07:58:14;100307.03;;;9.77;63.41
63204;BME280;49297;43.210;27.914;2023-03-15T08:00:40;100313.03;;;9.79;63.41
63204;BME280;49297;43.210;27.914;2023-03-15T08:03:07;100304.94;;;9.80;63.90
63204;BME280;49297;43.210;27.914;2023-03-15T08:05:34;100309.38;;;9.89;63.31
63204;BME280;49297;43.210;27.914;2023-03-15T08:08:01;100311.19;;;9.89;62.98
63204;BME280;49297;43.210;27.914;2023-03-15T08:10:27;100315.22;;;9.93;63.65
63204;BME280;49297;43.210;27.914;2023-03-15T08:12:52;100303.38;;;9.97;63.45
63204;BME280;49297;43.210;27.914;2023-03-15T08:15:18;100294.56;;;10.06;63.40
63204;BME280;49297;43.210;27.914;2023-03-15T08:17:46;100306.78;;;10.17;63.05
63204;BME280;49297;43.210;27.914;2023-03-15T08:20:12;100299.09;;;10.24;62.99
63204;BME280;49297;43.210;27.914;2023-03-15T08:22:43;100295.59;;;10.33;63.03
63204;BME280;49297;43.210;27.914;2023-03-15T08:25:10;100293.91;;;10.42;63.67
63204;BME280;49297;43.210;27.914;2023-03-15T08:27:38;100285.53;;;10.46;63.27
63204;BME280;49297;43.210;27.914;2023-03-15T08:30:05;100284.81;;;10.44;62.68
63204;BME280;49297;43.210;27.914;2023-03-15T08:32:31;100290.81;;;10.46;62.64
63204;BME280;49297;43.210;27.914;2023-03-15T08:34:57;100291.50;;;10.48;62.90
63204;BME280;49297;43.210;27.914;2023-03-15T08:37:23;100294.69;;;10.52;62.86
63204;BME280;49297;43.210;27.914;2023-03-15T08:39:49;100298.59;;;10.48;63.04
63204;BME280;49297;43.210;27.914;2023-03-15T08:42:22;100306.25;;;10.51;63.70
63204;BME280;49297;43.210;27.914;2023-03-15T08:44:48;100303.56;;;10.61;63.34
63204;BME280;49297;43.210;27.914;2023-03-15T08:47:14;100304.09;;;10.64;63.60
63204;BME280;49297;43.210;27.914;2023-03-15T08:49:39;100307.56;;;10.65;63.16
63204;BME280;49297;43.210;27.914;2023-03-15T08:52:06;100300.47;;;10.65;63.27
63204;BME280;49297;43.210;27.914;2023-03-15T08:54:32;100301.34;;;10.56;63.49
63204;BME280;49297;43.210;27.914;2023-03-15T08:56:57;100290.38;;;10.51;63.42
63204;BME280;49297;43.210;27.914;2023-03-15T08:59:23;100294.22;;;10.57;63.48
63204;BME280;49297;43.210;27.914;2023-03-15T09:01:49;100286.47;;;10.55;63.95
63204;BME280;49297;43.210;27.914;2023-03-15T09:04:15;100287.22;;;10.65;63.70
63204;BME280;49297;43.210;27.914;2023-03-15T09:06:40;100289.97;;;10.74;63.68
63204;BME280;49297;43.210;27.914;2023-03-15T09:09:06;100285.22;;;10.77;63.69
63204;BME280;49297;43.210;27.914;2023-03-15T09:11:32;100285.38;;;10.94;63.58
63204;BME280;49297;43.210;27.914;2023-03-15T09:13:58;100278.63;;;10.99;62.91
63204;BME280;49297;43.210;27.914;2023-03-15T09:16:24;100282.72;;;11.12;63.15
63204;BME280;49297;43.210;27.914;2023-03-15T09:18:50;100273.19;;;11.19;63.03
63204;BME280;49297;43.210;27.914;2023-03-15T09:21:15;100277.78;;;11.35;62.87
63204;BME280;49297;43.210;27.914;2023-03-15T09:23:41;100276.56;;;11.47;62.14
63204;BME280;49297;43.210;27.914;2023-03-15T09:26:07;100270.59;;;11.45;62.21
63204;BME280;49297;43.210;27.914;2023-03-15T09:28:33;100273.53;;;11.42;62.14
63204;BME280;49297;43.210;27.914;2023-03-15T09:31:03;100280.06;;;11.30;62.24
63204;BME280;49297;43.210;27.914;2023-03-15T09:33:29;100281.81;;;11.21;62.50
63204;BME280;49297;43.210;27.914;2023-03-15T09:35:57;100276.06;;;11.08;61.66
63204;BME280;49297;43.210;27.914;2023-03-15T09:38:23;100274.78;;;10.94;62.22
63204;BME280;49297;43.210;27.914;2023-03-15T09:40:49;100266.44;;;10.89;62.67
63204;BME280;49297;43.210;27.914;2023-03-15T09:49:13;100249.13;;;10.94;63.46
63204;BME280;49297;43.210;27.914;2023-03-15T09:51:53;100244.88;;;11.01;63.90
63204;BME280;49297;43.210;27.914;2023-03-15T09:54:25;100244.97;;;11.10;64.06
63204;BME280;49297;43.210;27.914;2023-03-15T09:57:00;100242.47;;;11.08;63.55
63204;BME280;49297;43.210;27.914;2023-03-15T09:59:35;100247.09;;;11.06;63.41
63204;BME280;49297;43.210;27.914;2023-03-15T10:02:26;100251.09;;;11.10;63.40
63204;BME280;49297;43.210;27.914;2023-03-15T10:05:04;100249.34;;;11.01;63.03
63204;BME280;49297;43.210;27.914;2023-03-15T10:07:31;100242.94;;;11.03;63.01
63204;BME280;49297;43.210;27.914;2023-03-15T10:09:57;100245.94;;;11.09;63.46
63204;BME280;49297;43.210;27.914;2023-03-15T10:12:30;100231.34;;;11.04;63.65
63204;BME280;49297;43.210;27.914;2023-03-15T10:15:15;100236.47;;;11.06;63.61
63204;BME280;49297;43.210;27.914;2023-03-15T10:20:41;100235.41;;;11.17;63.82
63204;BME280;49297;43.210;27.914;2023-03-15T10:25:49;100230.75;;;11.11;63.91
63204;BME280;49297;43.210;27.914;2023-03-15T10:30:49;100216.06;;;10.98;63.89
63204;BME280;49297;43.210;27.914;2023-03-15T10:33:34;100222.72;;;10.84;64.32
63204;BME280;49297;43.210;27.914;2023-03-15T10:36:07;100211.97;;;10.86;65.00
63204;BME280;49297;43.210;27.914;2023-03-15T10:38:35;100205.84;;;10.85;65.43
63204;BME280;49297;43.210;27.914;2023-03-15T10:41:05;100202.97;;;10.97;65.39
63204;BME280;49297;43.210;27.914;2023-03-15T10:43:33;100205.00;;;11.03;65.26
63204;BME280;49297;43.210;27.914;2023-03-15T10:48:38;100188.50;;;11.09;64.58
63204;BME280;49297;43.210;27.914;2023-03-15T10:51:51;100177.66;;;11.20;64.57
63204;BME280;49297;43.210;27.914;2023-03-15T10:54:19;100166.38;;;11.18;64.36
63204;BME280;49297;43.210;27.914;2023-03-15T10:59:26;100151.97;;;11.47;64.31
63204;BME280;49297;43.210;27.914;2023-03-15T11:04:49;100153.13;;;11.79;63.16
63204;BME280;49297;43.210;27.914;2023-03-15T11:07:15;100163.44;;;11.82;63.05
63204;BME280;49297;43.210;27.914;2023-03-15T11:09:46;100159.63;;;11.85;62.94
63204;BME280;49297;43.210;27.914;2023-03-15T11:12:21;100158.25;;;11.72;63.32
63204;BME280;49297;43.210;27.914;2023-03-15T11:14:52;100146.00;;;11.45;63.51
63204;BME280;49297;43.210;27.914;2023-03-15T11:17:23;100139.00;;;11.36;63.55
63204;BME280;49297;43.210;27.914;2023-03-15T11:20:03;100136.00;;;11.39;64.10
63204;BME280;49297;43.210;27.914;2023-03-15T11:22:41;100134.00;;;11.59;63.92
63204;BME280;49297;43.210;27.914;2023-03-15T11:25:11;100127.44;;;11.71;64.06
63204;BME280;49297;43.210;27.914;2023-03-15T11:27:37;100130.91;;;11.72;63.99
63204;BME280;49297;43.210;27.914;2023-03-15T11:30:03;100122.13;;;11.79;64.08
63204;BME280;49297;43.210;27.914;2023-03-15T11:32:30;100105.91;;;11.82;63.68
63204;BME280;49297;43.210;27.914;2023-03-15T11:35:13;100106.72;;;11.83;63.89
63204;BME280;49297;43.210;27.914;2023-03-15T11:37:50;100112.38;;;11.80;64.00
63204;BME280;49297;43.210;27.914;2023-03-15T11:40:20;100105.44;;;11.87;64.10
63204;BME280;49297;43.210;27.914;2023-03-15T11:43:15;100102.97;;;11.94;63.63
63204;BME280;49297;43.210;27.914;2023-03-15T11:45:56;100107.72;;;12.25;63.25
63204;BME280;49297;43.210;27.914;2023-03-15T11:50:52;100103.44;;;12.81;61.91
63204;BME280;49297;43.210;27.914;2023-03-15T11:53:19;100102.88;;;13.19;61.09
63204;BME280;49297;43.210;27.914;2023-03-15T11:55:49;100106.13;;;13.62;60.20
63204;BME280;49297;43.210;27.914;2023-03-15T11:58:34;100101.84;;;13.92;58.87
63204;BME280;49297;43.210;27.914;2023-03-15T12:01:09;100104.00;;;14.20;58.38
63204;BME280;49297;43.210;27.914;2023-03-15T12:03:38;100106.16;;;14.47;57.41
63204;BME280;49297;43.210;27.914;2023-03-15T12:16:26;100110.09;;;14.28;56.48
63204;BME280;49297;43.210;27.914;2023-03-15T12:18:56;100108.84;;;14.39;56.84
63204;BME280;49297;43.210;27.914;2023-03-15T12:21:31;100108.81;;;14.47;56.05
63204;BME280;49297;43.210;27.914;2023-03-15T12:26:34;100114.53;;;14.82;55.14
63204;BME280;49297;43.210;27.914;2023-03-15T12:29:15;100113.41;;;14.62;55.66
63204;BME280;49297;43.210;27.914;2023-03-15T12:31:55;100115.41;;;14.28;56.31
63204;BME280;49297;43.210;27.914;2023-03-15T12:47:45;100123.56;;;12.00;63.54
63204;BME280;49297;43.210;27.914;2023-03-15T12:53:09;100131.84;;;11.97;64.32
63204;BME280;49297;43.210;27.914;2023-03-15T12:55:39;100127.56;;;12.04;64.24
63204;BME280;49297;43.210;27.914;2023-03-15T12:58:10;100113.81;;;12.17;64.18
63204;BME280;49297;43.210;27.914;2023-03-15T13:00:39;100110.88;;;12.36;64.25
63204;BME280;49297;43.210;27.914;2023-03-15T13:03:10;100117.38;;;12.59;63.71
63204;BME280;49297;43.210;27.914;2023-03-15T13:08:23;100115.72;;;12.74;62.88
63204;BME280;49297;43.210;27.914;2023-03-15T13:16:11;100107.88;;;12.31;64.12
63204;BME280;49297;43.210;27.914;2023-03-15T13:18:49;100100.91;;;12.38;64.02
63204;BME280;49297;43.210;27.914;2023-03-15T13:21:33;100093.28;;;12.44;63.94
63204;BME280;49297;43.210;27.914;2023-03-15T13:24:01;100101.59;;;12.49;63.72
63204;BME280;49297;43.210;27.914;2023-03-15T13:29:48;100104.34;;;12.06;64.18
63204;BME280;49297;43.210;27.914;2023-03-15T13:32:16;100104.72;;;11.77;65.28
63204;BME280;49297;43.210;27.914;2023-03-15T13:34:44;100099.84;;;11.56;66.18
63204;BME280;49297;43.210;27.914;2023-03-15T13:37:19;100098.00;;;11.56;66.33
63204;BME280;49297;43.210;27.914;2023-03-15T13:40:04;100102.13;;;11.51;66.63
63204;BME280;49297;43.210;27.914;2023-03-15T13:42:30;100103.22;;;11.40;66.65
63204;BME280;49297;43.210;27.914;2023-03-15T13:47:33;100100.06;;;11.36;67.24
63204;BME280;49297;43.210;27.914;2023-03-15T13:50:04;100096.97;;;11.41;67.23
63204;BME280;49297;43.210;27.914;2023-03-15T13:52:30;100100.78;;;11.47;67.02
63204;BME280;49297;43.210;27.914;2023-03-15T13:54:56;100092.94;;;11.37;67.09
63204;BME280;49297;43.210;27.914;2023-03-15T13:57:23;100088.66;;;11.36;67.39
63204;BME280;49297;43.210;27.914;2023-03-15T14:02:22;100084.88;;;11.47;67.11
63204;BME280;49297;43.210;27.914;2023-03-15T14:04:52;100088.50;;;11.46;67.28
63204;BME280;49297;43.210;27.914;2023-03-15T14:07:25;100076.13;;;11.54;67.41
63204;BME280;49297;43.210;27.914;2023-03-15T14:12:43;100067.19;;;11.55;66.52
63204;BME280;49297;43.210;27.914;2023-03-15T14:15:16;100070.59;;;11.39;66.79
63204;BME280;49297;43.210;27.914;2023-03-15T14:18:01;100067.66;;;11.16;67.52
63204;BME280;49297;43.210;27.914;2023-03-15T14:20:30;100062.69;;;11.13;67.65